Time;durP1;ratioP1;P1;durP2;ratioP2;P2;SDS_P1;SDS_P2;PMS_P1;PMS_P2;Temp;Humidity;BMP_temperature;BMP_pressure;BME280_temperature;BME280_humidity;BME280_pressure;Samples;Min_cycle;Max_cycle;Signal;HPM_P1;HPM_P2
2022/04/03 00:01:11;;;;;;;16.83;9.07;;;4.00;71.40;;;;;;5062834;28;20231;-69
2022/04/03 00:03:42;;;;;;;12.55;8.43;;;3.90;71.50;;;;;;5060729;28;20204;-69
2022/04/03 00:06:10;;;;;;;11.15;7.47;;;3.90;71.60;;;;;;5059853;28;20273;-70
2022/04/03 00:08:38;;;;;;;13.32;8.15;;;3.90;71.60;;;;;;5057939;28;20226;-70
2022/04/03 00:11:06;;;;;;;10.25;7.10;;;3.80;71.60;;;;;;5056422;28;20199;-69
2022/04/03 00:13:34;;;;;;;10.15;7.85;;;3.80;71.60;;;;;;5058183;28;20218;-69
2022/04/03 00:16:03;;;;;;;10.23;6.93;;;3.80;71.60;;;;;;5059513;28;20232;-70
2022/04/03 00:18:31;;;;;;;10.18;7.20;;;3.70;71.50;;;;;;5058855;28;20228;-70
2022/04/03 00:21:01;;;;;;;11.18;7.55;;;3.70;71.60;;;;;;5064284;28;20215;-69
2022/04/03 00:23:29;;;;;;;10.25;7.40;;;3.70;71.60;;;;;;5064625;28;20665;-69
2022/04/03 00:25:57;;;;;;;11.32;7.88;;;3.70;71.60;;;;;;5056254;28;20628;-70
2022/04/03 00:28:26;;;;;;;16.08;8.60;;;3.60;71.60;;;;;;5054717;28;20278;-69
2022/04/03 00:30:54;;;;;;;11.55;7.85;;;3.60;71.60;;;;;;5059202;28;20267;-70
2022/04/03 00:33:22;;;;;;;13.30;8.00;;;3.60;71.60;;;;;;5059277;28;20583;-69
2022/04/03 00:35:50;;;;;;;12.77;8.75;;;3.50;71.60;;;;;;5055751;28;20200;-70
2022/04/03 00:38:19;;;;;;;12.15;7.88;;;3.50;71.70;;;;;;5056839;28;20231;-68
2022/04/03 00:40:49;;;;;;;11.50;6.75;;;3.50;71.70;;;;;;5055115;28;20205;-69
2022/04/03 00:43:17;;;;;;;11.30;8.10;;;3.50;71.70;;;;;;5055548;28;20960;-68
2022/04/03 00:45:47;;;;;;;10.57;6.88;;;3.50;71.70;;;;;;5057046;28;20308;-68
2022/04/03 00:48:15;;;;;;;11.15;6.53;;;3.50;71.70;;;;;;5058345;28;20220;-68
2022/04/03 00:50:44;;;;;;;10.57;6.55;;;3.40;71.80;;;;;;5058325;28;20205;-69
2022/04/03 00:53:13;;;;;;;15.77;7.45;;;3.40;71.80;;;;;;5062902;28;20204;-69
2022/04/03 00:55:44;;;;;;;10.40;7.25;;;3.40;71.80;;;;;;5061861;28;20693;-69
2022/04/03 00:58:12;;;;;;;11.07;7.40;;;3.40;71.80;;;;;;5056919;28;20225;-69
2022/04/03 01:00:41;;;;;;;9.65;7.05;;;3.40;71.70;;;;;;5059173;28;20244;-69
2022/04/03 01:03:10;;;;;;;13.05;7.55;;;3.30;71.80;;;;;;5058412;28;20199;-70
2022/04/03 01:05:38;;;;;;;12.20;7.90;;;3.30;71.80;;;;;;5063389;28;20243;-69
2022/04/03 01:08:07;;;;;;;11.00;7.10;;;3.30;71.80;;;;;;5062277;28;20219;-69
2022/04/03 01:10:35;;;;;;;11.88;7.13;;;3.30;72.00;;;;;;5060586;28;20200;-69
2022/04/03 01:13:05;;;;;;;11.30;8.00;;;3.30;71.80;;;;;;5061155;28;20220;-69
2022/04/03 01:15:33;;;;;;;11.82;8.00;;;3.30;71.80;;;;;;5058082;28;20749;-68
2022/04/03 01:18:01;;;;;;;17.00;11.13;;;3.30;72.00;;;;;;5060417;28;20693;-69
2022/04/03 01:20:29;;;;;;;22.35;11.23;;;3.20;72.00;;;;;;5057941;28;20387;-69
2022/04/03 01:22:58;;;;;;;28.08;15.27;;;3.20;72.10;;;;;;5058421;28;20270;-69
2022/04/03 01:25:27;;;;;;;31.23;17.83;;;3.20;72.10;;;;;;5058523;28;20206;-70
2022/04/03 01:27:56;;;;;;;20.77;12.90;;;3.20;72.00;;;;;;5060391;28;20273;-69
2022/04/03 01:30:24;;;;;;;20.75;12.20;;;3.20;72.10;;;;;;5054291;28;20230;-68
2022/04/03 01:32:52;;;;;;;21.48;10.55;;;3.20;72.20;;;;;;5056933;28;20227;-70
2022/04/03 01:35:22;;;;;;;20.77;10.70;;;3.20;72.20;;;;;;5056138;28;20208;-69
2022/04/03 01:37:51;;;;;;;20.88;11.35;;;3.20;72.40;;;;;;5056532;28;20275;-69
2022/04/03 01:40:19;;;;;;;20.15;10.63;;;3.20;72.40;;;;;;5056371;28;20209;-69
2022/04/03 01:42:50;;;;;;;21.35;10.50;;;3.30;72.40;;;;;;5056347;28;20240;-70
2022/04/03 01:45:18;;;;;;;13.73;9.45;;;3.30;72.50;;;;;;5055548;28;20765;-68
2022/04/03 01:47:46;;;;;;;17.42;10.45;;;3.30;72.50;;;;;;5058417;28;20246;-68
2022/04/03 01:50:14;;;;;;;21.48;14.20;;;3.30;72.50;;;;;;5060919;28;20279;-68
2022/04/03 01:52:42;;;;;;;15.02;9.80;;;3.40;72.50;;;;;;5054868;28;20682;-69
2022/04/03 01:55:10;;;;;;;20.20;14.20;;;3.40;72.50;;;;;;5054466;28;20203;-69
2022/04/03 01:57:38;;;;;;;12.05;8.27;;;3.40;72.40;;;;;;5057220;28;20235;-68
2022/04/03 02:00:10;;;;;;;18.17;11.05;;;3.40;72.40;;;;;;5056898;28;20203;-69
2022/04/03 02:02:38;;;;;;;16.63;9.80;;;3.40;72.50;;;;;;5054340;28;20405;-69
2022/04/03 02:05:07;;;;;;;15.70;9.65;;;3.40;72.60;;;;;;5058649;28;20196;-68
2022/04/03 02:07:35;;;;;;;19.10;10.50;;;3.40;72.60;;;;;;5058216;28;20216;-69
2022/04/03 02:10:05;;;;;;;17.35;8.52;;;3.40;72.50;;;;;;5057041;28;20215;-68
2022/04/03 02:12:33;;;;;;;12.25;8.13;;;3.40;72.50;;;;;;5058585;28;20200;-68
2022/04/03 02:15:01;;;;;;;11.13;7.80;;;3.40;72.50;;;;;;5059155;28;20697;-69
2022/04/03 02:17:31;;;;;;;12.07;7.57;;;3.40;72.40;;;;;;5058760;28;20239;-68
2022/04/03 02:19:58;;;;;;;11.75;8.00;;;3.30;72.30;;;;;;5066562;28;20204;-68
2022/04/03 02:22:32;;;;;;;12.13;7.53;;;3.30;72.40;;;;;;5067060;28;20201;-68
2022/04/03 02:25:00;;;;;;;11.13;7.63;;;3.20;72.40;;;;;;5065534;28;20222;-68
2022/04/03 02:27:28;;;;;;;11.38;7.43;;;3.20;72.40;;;;;;5060738;28;20227;-68
2022/04/03 02:29:56;;;;;;;12.23;8.30;;;3.20;72.40;;;;;;5059155;28;20213;-68
2022/04/03 02:32:25;;;;;;;13.07;8.85;;;3.20;72.40;;;;;;5057024;28;20220;-68
2022/04/03 02:34:54;;;;;;;11.25;7.97;;;3.20;72.50;;;;;;5056569;28;20697;-68
2022/04/03 02:37:22;;;;;;;13.43;8.20;;;3.10;72.50;;;;;;5056737;28;20235;-68
2022/04/03 02:39:50;;;;;;;18.77;8.75;;;3.10;72.50;;;;;;5055511;28;20591;-68
2022/04/03 02:42:19;;;;;;;12.35;7.70;;;3.10;72.50;;;;;;5052236;28;20204;-68
2022/04/03 02:44:47;;;;;;;12.65;7.75;;;3.10;72.50;;;;;;5051062;28;20200;-68
2022/04/03 02:47:15;;;;;;;11.23;7.90;;;3.10;72.60;;;;;;5052945;28;20231;-68
2022/04/03 02:49:43;;;;;;;11.82;7.07;;;3.10;72.70;;;;;;5054821;28;20214;-68
2022/04/03 02:52:12;;;;;;;10.65;6.68;;;3.10;72.70;;;;;;5058681;28;20728;-68
2022/04/03 02:54:41;;;;;;;14.18;7.10;;;3.10;72.70;;;;;;5056268;28;20220;-68
2022/04/03 02:57:09;;;;;;;11.32;7.53;;;3.10;72.70;;;;;;5053832;28;20229;-68
2022/04/03 02:59:37;;;;;;;11.48;7.22;;;3.10;72.70;;;;;;5052406;28;20205;-68
2022/04/03 03:02:20;;;;;;;12.55;8.23;;;3.10;72.70;;;;;;5054350;28;20599;-68
2022/04/03 03:04:48;;;;;;;10.98;7.20;;;3.10;72.70;;;;;;5053601;28;20273;-68
2022/04/03 03:07:17;;;;;;;10.55;6.28;;;3.10;72.70;;;;;;5057450;28;20318;-68
2022/04/03 03:09:45;;;;;;;10.07;6.90;;;3.00;72.70;;;;;;5054959;28;20243;-69
2022/04/03 03:12:13;;;;;;;11.18;7.25;;;3.00;72.90;;;;;;5055853;28;20205;-68
2022/04/03 03:14:41;;;;;;;11.07;7.55;;;3.00;72.90;;;;;;5056450;28;20224;-68
2022/04/03 03:17:15;;;;;;;9.55;6.68;;;3.00;72.90;;;;;;5055789;28;20232;-69
2022/04/03 03:19:44;;;;;;;12.10;6.75;;;3.00;72.90;;;;;;5056675;28;20219;-68
2022/04/03 03:22:12;;;;;;;9.70;6.63;;;3.00;72.90;;;;;;5054986;28;20207;-68
2022/04/03 03:24:42;;;;;;;10.00;6.80;;;3.00;72.90;;;;;;5058337;28;20204;-69
2022/04/03 03:27:09;;;;;;;11.45;6.95;;;3.00;72.90;;;;;;5057153;28;20228;-69
2022/04/03 03:29:38;;;;;;;12.57;7.80;;;3.00;73.00;;;;;;5053059;28;20200;-68
2022/04/03 03:32:07;;;;;;;10.40;7.47;;;3.00;73.00;;;;;;5053864;28;20310;-68
2022/04/03 03:34:35;;;;;;;11.32;7.22;;;2.90;72.90;;;;;;5059403;28;20730;-68
2022/04/03 03:37:04;;;;;;;11.50;7.30;;;2.90;72.90;;;;;;5058357;28;20231;-69
2022/04/03 03:39:32;;;;;;;10.40;7.40;;;2.90;72.90;;;;;;5054359;28;20199;-68
2022/04/03 03:42:02;;;;;;;10.98;7.30;;;2.90;72.90;;;;;;5051618;28;20234;-68
2022/04/03 03:44:30;;;;;;;11.27;6.80;;;2.80;73.00;;;;;;5054148;28;20697;-68
2022/04/03 03:47:04;;;;;;;9.93;7.20;;;2.80;72.90;;;;;;5048349;28;20240;-68
2022/04/03 03:49:33;;;;;;;11.40;7.10;;;2.80;72.90;;;;;;5054889;28;20219;-68
2022/04/03 03:52:02;;;;;;;9.43;6.63;;;2.80;72.90;;;;;;5057454;28;20197;-69
2022/04/03 03:54:30;;;;;;;9.80;6.22;;;2.70;72.90;;;;;;5058050;28;20227;-69
2022/04/03 03:56:58;;;;;;;15.80;7.20;;;2.70;72.90;;;;;;5053998;28;20228;-69
2022/04/03 03:59:27;;;;;;;8.65;5.57;;;2.70;73.00;;;;;;5040384;28;20242;-70
2022/04/03 04:01:56;;;;;;;9.48;6.03;;;2.70;73.00;;;;;;5058068;28;20220;-70
2022/04/03 04:04:24;;;;;;;9.07;5.85;;;2.70;73.00;;;;;;5056392;28;20242;-70
2022/04/03 04:06:52;;;;;;;13.23;6.95;;;2.70;73.00;;;;;;5053960;28;20204;-69
2022/04/03 04:09:20;;;;;;;11.32;6.65;;;2.60;73.00;;;;;;5053948;28;20212;-69
2022/04/03 04:11:48;;;;;;;8.88;6.32;;;2.60;72.90;;;;;;5051639;28;20284;-70
2022/04/03 04:14:22;;;;;;;40.80;16.92;;;2.60;72.90;;;;;;5057104;28;20208;-69
2022/04/03 04:16:51;;;;;;;36.60;17.05;;;2.50;72.70;;;;;;5059074;28;20601;-69
2022/04/03 04:19:20;;;;;;;21.35;10.60;;;2.40;72.80;;;;;;5056125;28;20228;-69
2022/04/03 04:21:47;;;;;;;20.40;11.00;;;2.40;72.90;;;;;;5057086;28;20200;-69
2022/04/03 04:24:15;;;;;;;22.52;10.30;;;2.40;72.80;;;;;;5056773;28;20185;-69
2022/04/03 04:26:43;;;;;;;44.05;17.75;;;2.40;72.80;;;;;;5057840;28;20254;-70
2022/04/03 04:29:11;;;;;;;27.63;12.05;;;2.30;72.70;;;;;;5056333;28;20211;-69
2022/04/03 04:31:39;;;;;;;26.15;13.20;;;2.30;72.80;;;;;;5058569;28;20240;-69
2022/04/03 04:34:09;;;;;;;15.88;9.48;;;2.20;73.00;;;;;;5062752;28;20236;-68
2022/04/03 04:36:37;;;;;;;28.55;12.93;;;2.20;73.00;;;;;;5059302;28;20208;-69
2022/04/03 04:39:06;;;;;;;107.03;34.58;;;2.20;73.10;;;;;;5058575;28;20216;-69
2022/04/03 04:41:34;;;;;;;114.72;37.75;;;2.20;72.90;;;;;;5055688;28;20195;-69
2022/04/03 04:44:02;;;;;;;46.25;19.33;;;2.10;72.90;;;;;;5061215;28;20201;-68
2022/04/03 04:46:29;;;;;;;36.20;16.17;;;2.10;72.80;;;;;;5055052;28;20228;-68
2022/04/03 04:48:58;;;;;;;23.95;11.80;;;2.10;72.90;;;;;;5058539;28;20220;-70
2022/04/03 04:51:27;;;;;;;16.75;9.30;;;2.00;72.80;;;;;;5058461;28;20200;-70
2022/04/03 04:53:55;;;;;;;26.70;11.85;;;2.00;72.80;;;;;;5058958;28;20203;-70
2022/04/03 04:56:23;;;;;;;21.15;10.50;;;1.90;72.80;;;;;;5064756;28;20212;-69
2022/04/03 04:58:51;;;;;;;29.52;12.25;;;1.90;72.90;;;;;;5063781;28;20302;-70
2022/04/03 05:01:19;;;;;;;32.40;13.27;;;1.90;73.00;;;;;;5056095;28;20220;-69
2022/04/03 05:03:47;;;;;;;24.95;12.35;;;1.90;73.00;;;;;;5056222;28;20204;-68
2022/04/03 05:06:15;;;;;;;23.17;9.73;;;1.90;73.00;;;;;;5054031;28;20192;-70
2022/04/03 05:08:45;;;;;;;16.42;8.73;;;2.00;73.00;;;;;;5061293;28;20887;-69
2022/04/03 05:11:14;;;;;;;75.15;25.33;;;1.90;72.90;;;;;;5060887;28;20204;-70
2022/04/03 05:13:42;;;;;;;73.72;23.55;;;2.00;72.90;;;;;;5062677;28;20219;-69
2022/04/03 05:16:11;;;;;;;67.07;24.58;;;2.00;72.80;;;;;;5059194;28;20240;-70
2022/04/03 05:18:40;;;;;;;58.45;20.10;;;1.90;72.70;;;;;;5053258;28;20723;-69
2022/04/03 05:21:10;;;;;;;15.77;8.95;;;1.90;72.70;;;;;;5055829;28;20697;-70
2022/04/03 05:23:38;;;;;;;19.83;9.20;;;1.90;72.70;;;;;;5057988;28;20211;-69
2022/04/03 05:26:08;;;;;;;24.23;11.32;;;1.90;72.70;;;;;;5059946;28;20253;-69
2022/04/03 05:28:36;;;;;;;55.65;17.80;;;1.90;72.80;;;;;;5059249;28;20244;-69
2022/04/03 05:31:04;;;;;;;16.52;9.50;;;1.90;72.80;;;;;;5059324;28;20223;-69
2022/04/03 05:33:33;;;;;;;43.88;15.65;;;1.90;72.60;;;;;;5060931;28;20196;-71
2022/04/03 05:36:01;;;;;;;27.77;15.82;;;1.90;72.60;;;;;;5057955;28;20237;-69
2022/04/03 05:38:28;;;;;;;20.23;11.77;;;1.90;72.50;;;;;;5062837;28;20232;-69
2022/04/03 05:40:57;;;;;;;16.27;10.75;;;1.80;72.50;;;;;;5066029;28;20736;-69
2022/04/03 05:43:27;;;;;;;13.98;8.73;;;1.80;72.60;;;;;;5064691;28;20209;-69
2022/04/03 05:45:55;;;;;;;10.85;8.20;;;1.80;72.60;;;;;;5064236;28;20232;-69
2022/04/03 05:48:23;;;;;;;12.95;8.73;;;1.80;72.70;;;;;;5062319;28;20709;-69
2022/04/03 05:50:51;;;;;;;16.13;10.55;;;1.80;72.60;;;;;;5060503;28;20203;-69
2022/04/03 05:53:19;;;;;;;16.70;11.75;;;1.80;72.60;;;;;;5053104;28;20201;-69
2022/04/03 05:55:53;;;;;;;16.02;10.68;;;1.80;72.60;;;;;;5056068;28;20218;-69
2022/04/03 05:58:21;;;;;;;18.02;9.40;;;1.90;72.60;;;;;;5058881;28;20223;-69
2022/04/03 06:00:50;;;;;;;14.52;9.13;;;1.80;72.50;;;;;;5057760;28;20254;-69
2022/04/03 06:03:24;;;;;;;14.45;9.48;;;1.90;72.70;;;;;;5058818;28;20251;-69
2022/04/03 06:05:52;;;;;;;60.58;29.85;;;1.90;72.60;;;;;;5056558;28;20216;-69
2022/04/03 06:08:21;;;;;;;32.58;19.63;;;1.90;72.70;;;;;;5053139;28;20229;-69
2022/04/03 06:10:49;;;;;;;19.08;12.23;;;1.90;72.60;;;;;;5057376;28;20200;-69
2022/04/03 06:13:17;;;;;;;27.90;16.25;;;1.90;72.40;;;;;;5060242;28;20204;-69
2022/04/03 06:15:47;;;;;;;46.00;32.05;;;1.90;72.70;;;;;;5039480;28;20246;-69
2022/04/03 06:18:20;;;;;;;47.47;29.83;;;1.90;72.70;;;;;;5059124;28;20276;-69
2022/04/03 06:20:49;;;;;;;36.88;21.15;;;2.00;72.80;;;;;;5054496;28;20206;-70
2022/04/03 06:23:19;;;;;;;30.27;18.95;;;2.00;72.80;;;;;;5042447;28;20269;-69
2022/04/03 06:25:49;;;;;;;36.03;19.33;;;2.10;72.80;;;;;;5055576;28;20208;-69
2022/04/03 06:28:17;;;;;;;37.50;21.42;;;2.10;72.90;;;;;;5059203;28;21023;-69
2022/04/03 06:30:46;;;;;;;40.67;25.42;;;2.20;72.90;;;;;;5056655;28;20254;-68
2022/04/03 06:33:17;;;;;;;27.98;19.35;;;2.30;72.80;;;;;;5058446;28;20215;-68
2022/04/03 06:35:46;;;;;;;18.55;12.10;;;2.30;72.80;;;;;;5054594;28;20855;-69
2022/04/03 06:38:14;;;;;;;14.82;9.90;;;2.40;72.80;;;;;;5055023;28;20247;-69
2022/04/03 06:40:49;;;;;;;11.50;8.07;;;2.40;73.00;;;;;;5053016;28;20266;-70
2022/04/03 06:43:18;;;;;;;13.35;7.35;;;2.50;72.90;;;;;;5054903;28;20208;-69
2022/04/03 06:45:47;;;;;;;14.15;7.47;;;2.50;72.90;;;;;;5059505;28;20247;-69
2022/04/03 06:48:17;;;;;;;10.43;7.60;;;2.60;72.90;;;;;;5057277;28;21021;-69
2022/04/03 06:50:46;;;;;;;14.15;7.30;;;2.60;72.90;;;;;;5056332;28;20192;-68
2022/04/03 06:53:14;;;;;;;15.63;8.50;;;2.70;73.00;;;;;;5058755;28;20272;-68
2022/04/03 06:55:42;;;;;;;11.80;8.20;;;2.70;72.90;;;;;;5060414;28;20227;-68
2022/04/03 06:58:11;;;;;;;13.90;8.15;;;2.70;72.90;;;;;;5060939;28;20302;-70
2022/04/03 07:00:40;;;;;;;12.60;7.40;;;2.80;73.00;;;;;;5057622;28;20232;-70
2022/04/03 07:03:08;;;;;;;10.05;7.80;;;2.80;73.00;;;;;;5057149;28;20205;-70
2022/04/03 07:05:37;;;;;;;13.00;8.15;;;2.90;73.00;;;;;;5056021;28;20231;-70
2022/04/03 07:08:06;;;;;;;12.63;7.95;;;2.90;73.00;;;;;;5048673;28;20265;-70
2022/04/03 07:10:34;;;;;;;13.63;8.60;;;2.90;73.00;;;;;;5057108;28;20220;-69
2022/04/03 07:13:02;;;;;;;13.63;8.52;;;3.00;73.00;;;;;;5049993;28;20203;-70
2022/04/03 07:15:30;;;;;;;12.55;9.13;;;3.00;73.00;;;;;;5053771;28;20256;-70
2022/04/03 07:17:58;;;;;;;17.17;10.23;;;3.00;73.10;;;;;;5058708;28;20232;-70
2022/04/03 07:20:26;;;;;;;18.38;8.68;;;3.10;72.90;;;;;;5057678;28;20196;-70
2022/04/03 07:22:56;;;;;;;22.33;13.65;;;3.10;72.90;;;;;;5056990;28;20197;-69
2022/04/03 07:25:24;;;;;;;14.43;9.73;;;3.20;73.00;;;;;;5040003;28;20208;-69
2022/04/03 07:27:52;;;;;;;13.27;8.45;;;3.10;72.70;;;;;;5058657;28;20235;-70
2022/04/03 07:30:20;;;;;;;16.95;9.20;;;3.10;72.70;;;;;;5057139;28;20203;-68
2022/04/03 07:32:48;;;;;;;11.52;7.72;;;3.10;72.50;;;;;;5054162;28;20197;-68
2022/04/03 07:35:17;;;;;;;15.13;8.60;;;3.10;72.60;;;;;;5055788;28;20203;-68
2022/04/03 07:37:45;;;;;;;11.68;7.82;;;3.00;72.20;;;;;;5054845;28;20239;-68
2022/04/03 07:40:14;;;;;;;20.38;11.07;;;3.00;72.50;;;;;;5035197;28;20205;-69
2022/04/03 07:42:42;;;;;;;16.52;8.20;;;3.00;72.60;;;;;;5055489;28;20208;-69
2022/04/03 07:45:12;;;;;;;14.38;9.65;;;2.90;71.80;;;;;;5057863;28;20192;-68
2022/04/03 07:47:47;;;;;;;19.27;10.15;;;2.90;71.90;;;;;;5056188;28;20749;-69
2022/04/03 07:50:18;;;;;;;14.27;7.63;;;2.80;72.40;;;;;;5056053;28;20226;-70
2022/04/03 07:52:47;;;;;;;13.68;8.85;;;2.90;72.50;;;;;;5056191;28;20936;-68
2022/04/03 07:55:17;;;;;;;13.88;8.55;;;2.90;72.60;;;;;;5056159;28;20198;-70
2022/04/03 07:57:51;;;;;;;10.15;6.32;;;3.00;72.60;;;;;;5058299;28;20246;-70
2022/04/03 08:00:19;;;;;;;13.65;7.88;;;3.10;72.50;;;;;;5054500;28;20199;-70
2022/04/03 08:02:47;;;;;;;18.95;10.10;;;3.10;72.40;;;;;;5056060;28;20211;-69
2022/04/03 08:05:15;;;;;;;9.38;7.10;;;3.20;72.50;;;;;;5057959;28;20211;-70
2022/04/03 08:07:48;;;;;;;14.93;8.13;;;3.20;72.30;;;;;;5059207;28;20224;-70
2022/04/03 08:10:20;;;;;;;16.83;8.85;;;3.20;72.40;;;;;;5059043;28;20212;-70
2022/04/03 08:12:50;;;;;;;18.45;9.20;;;3.20;71.90;;;;;;5061630;28;20288;-69
2022/04/03 08:15:20;;;;;;;12.88;6.05;;;3.20;72.10;;;;;;5041690;28;20200;-70
2022/04/03 08:17:48;;;;;;;15.43;8.10;;;3.20;71.60;;;;;;5061155;28;20235;-70
2022/04/03 08:20:18;;;;;;;17.95;8.52;;;3.20;70.80;;;;;;5059252;28;20297;-70
2022/04/03 08:22:47;;;;;;;14.63;7.88;;;3.20;71.20;;;;;;5057488;28;20255;-71
2022/04/03 08:25:16;;;;;;;15.93;7.45;;;3.20;71.30;;;;;;5057268;28;20958;-70
2022/04/03 08:27:48;;;;;;;10.75;5.43;;;3.20;71.40;;;;;;5059617;28;20217;-69
2022/04/03 08:30:19;;;;;;;9.48;5.00;;;3.20;71.50;;;;;;5060138;28;20215;-69
2022/04/03 08:32:48;;;;;;;10.93;6.07;;;3.20;70.50;;;;;;5062061;28;20673;-70
2022/04/03 08:35:17;;;;;;;17.67;7.10;;;3.30;70.90;;;;;;5062183;28;20195;-69
2022/04/03 08:37:45;;;;;;;10.98;6.05;;;3.30;70.90;;;;;;5063327;28;20702;-69
2022/04/03 08:40:19;;;;;;;8.50;5.35;;;3.30;70.90;;;;;;5059855;28;20809;-69
2022/04/03 08:42:52;;;;;;;9.30;5.70;;;3.40;70.80;;;;;;5057832;28;20278;-69
2022/04/03 08:45:20;;;;;;;9.02;5.63;;;3.40;70.50;;;;;;5061454;28;20223;-68
2022/04/03 08:47:51;;;;;;;15.10;6.93;;;3.40;70.30;;;;;;5062403;28;20226;-69
2022/04/03 08:50:21;;;;;;;19.00;9.35;;;3.40;70.30;;;;;;5060008;28;20192;-69
2022/04/03 08:52:51;;;;;;;24.23;10.85;;;3.50;70.20;;;;;;5061684;28;20211;-69
2022/04/03 08:55:21;;;;;;;19.55;9.18;;;3.50;70.20;;;;;;5061220;28;20200;-69
2022/04/03 08:57:53;;;;;;;15.55;7.20;;;3.50;70.20;;;;;;5048172;28;20224;-69
2022/04/03 09:00:21;;;;;;;12.68;6.85;;;3.60;70.30;;;;;;5063474;28;20204;-67
2022/04/03 09:02:51;;;;;;;9.05;5.10;;;3.60;70.20;;;;;;5067986;28;20201;-67
2022/04/03 09:05:20;;;;;;;14.25;8.48;;;3.70;69.90;;;;;;5070045;28;20266;-67
2022/04/03 09:08:00;;;;;;;9.20;5.18;;;3.80;70.00;;;;;;5066895;28;20273;-67
2022/04/03 09:10:28;;;;;;;17.13;8.85;;;3.80;69.60;;;;;;5044829;28;20749;-67
2022/04/03 09:12:58;;;;;;;27.45;11.40;;;3.80;69.70;;;;;;5065024;28;20223;-67
2022/04/03 09:15:27;;;;;;;18.92;9.52;;;3.80;67.90;;;;;;5059353;28;20231;-68
2022/04/03 09:17:57;;;;;;;27.38;11.70;;;3.80;68.90;;;;;;5059918;28;20232;-68
2022/04/03 09:20:27;;;;;;;21.02;10.85;;;3.90;69.00;;;;;;5058582;28;20707;-67
2022/04/03 09:22:58;;;;;;;22.15;9.85;;;3.90;67.90;;;;;;5057257;28;20218;-67
2022/04/03 09:25:34;;;;;;;16.45;7.68;;;3.90;67.60;;;;;;5062333;28;20203;-67
2022/04/03 09:28:04;;;;;;;11.75;6.60;;;3.90;66.10;;;;;;5044219;28;20220;-67
2022/04/03 09:30:34;;;;;;;12.85;6.32;;;3.90;66.30;;;;;;5058338;28;20251;-67
2022/04/03 09:33:05;;;;;;;17.38;7.80;;;3.90;67.70;;;;;;5055288;28;20208;-68
2022/04/03 09:35:53;;;;;;;17.92;9.07;;;3.90;67.90;;;;;;5063256;28;20200;-68
2022/04/03 09:38:23;;;;;;;18.45;9.52;;;3.90;67.50;;;;;;5061822;28;20239;-68
2022/04/03 09:40:53;;;;;;;12.93;5.93;;;4.00;66.10;;;;;;5058951;28;20192;-68
2022/04/03 09:43:24;;;;;;;12.63;7.13;;;4.00;67.10;;;;;;5056575;28;20215;-68
2022/04/03 09:45:54;;;;;;;13.18;6.78;;;4.10;66.20;;;;;;5056286;28;20368;-68
2022/04/03 09:48:28;;;;;;;16.38;8.10;;;4.10;66.60;;;;;;5056654;28;20396;-69
2022/04/03 09:51:03;;;;;;;11.15;5.88;;;4.10;65.90;;;;;;5056849;28;20196;-68
2022/04/03 09:53:42;;;;;;;7.35;4.45;;;4.10;64.90;;;;;;5042023;28;20265;-68
2022/04/03 09:56:11;;;;;;;5.70;3.70;;;4.10;64.20;;;;;;5055706;28;20833;-68
2022/04/03 09:58:55;;;;;;;9.48;5.38;;;4.10;65.00;;;;;;5054655;28;20230;-68
2022/04/03 10:01:26;;;;;;;7.15;3.00;;;4.20;65.10;;;;;;5052365;28;20239;-68
2022/04/03 10:03:56;;;;;;;12.48;5.50;;;4.20;63.60;;;;;;5053890;28;20209;-68
2022/04/03 10:06:24;;;;;;;19.08;8.60;;;4.20;64.60;;;;;;5058098;28;20290;-68
2022/04/03 10:08:53;;;;;;;6.78;3.65;;;4.20;60.80;;;;;;5056007;28;20244;-69
2022/04/03 10:11:21;;;;;;;7.18;3.97;;;4.20;63.10;;;;;;5059112;28;20199;-68
2022/04/03 10:13:51;;;;;;;6.57;3.50;;;4.20;62.10;;;;;;5057336;28;20288;-68
2022/04/03 10:16:20;;;;;;;5.65;3.92;;;4.20;62.10;;;;;;5054019;28;20217;-68
2022/04/03 10:18:50;;;;;;;7.82;4.30;;;4.20;62.80;;;;;;5055829;28;20300;-69
2022/04/03 10:21:24;;;;;;;7.78;4.40;;;4.20;62.70;;;;;;5037259;28;20211;-68
2022/04/03 10:23:57;;;;;;;6.97;3.35;;;4.30;62.70;;;;;;5057944;28;20207;-68
2022/04/03 10:26:27;;;;;;;7.45;3.80;;;4.30;62.50;;;;;;5056712;28;21434;-67
2022/04/03 10:28:57;;;;;;;11.93;5.40;;;4.30;62.60;;;;;;5054748;28;20863;-68
2022/04/03 10:31:26;;;;;;;9.45;3.30;;;4.30;61.70;;;;;;5056386;28;20224;-68
2022/04/03 10:33:54;;;;;;;4.75;2.70;;;4.40;62.50;;;;;;5057475;28;20215;-68
2022/04/03 10:36:26;;;;;;;6.07;3.30;;;4.40;60.80;;;;;;5055458;28;20261;-69
2022/04/03 10:39:00;;;;;;;9.73;5.38;;;4.50;61.90;;;;;;5058139;28;20313;-67
2022/04/03 10:41:30;;;;;;;15.15;8.07;;;4.60;62.10;;;;;;5056568;28;20196;-68
2022/04/03 10:44:18;;;;;;;8.60;4.63;;;4.60;61.40;;;;;;5050695;28;21036;-68
2022/04/03 10:47:23;;;;;;;8.65;3.47;;;4.70;61.60;;;;;;5055397;28;20239;-69
2022/04/03 10:50:00;;;;;;;6.55;3.53;;;4.70;61.00;;;;;;5033384;28;20216;-68
2022/04/03 10:52:56;;;;;;;7.85;3.90;;;4.70;61.30;;;;;;5056718;28;20235;-67
2022/04/03 10:55:27;;;;;;;9.48;3.30;;;4.80;61.10;;;;;;5056533;28;20295;-67
2022/04/03 10:57:58;;;;;;;8.65;3.63;;;4.80;60.90;;;;;;5054208;28;20886;-68
2022/04/03 11:00:39;;;;;;;14.45;6.63;;;4.80;60.60;;;;;;5053187;28;20871;-68
2022/04/03 11:03:35;;;;;;;6.82;3.30;;;4.80;59.40;;;;;;5057588;28;20203;-68
2022/04/03 11:06:24;;;;;;;16.65;7.05;;;4.80;59.90;;;;;;5060239;28;20199;-69
2022/04/03 11:09:25;;;;;;;6.00;3.28;;;4.80;59.30;;;;;;5058936;28;20713;-68
2022/04/03 11:11:55;;;;;;;12.95;4.45;;;4.90;59.90;;;;;;5058244;28;20216;-69
2022/04/03 11:14:57;;;;;;;6.07;3.50;;;5.00;60.30;;;;;;5056067;28;20203;-68
2022/04/03 11:17:53;;;;;;;8.55;4.15;;;5.20;60.40;;;;;;5051132;28;20231;-67
2022/04/03 11:20:38;;;;;;;6.13;3.40;;;5.30;59.80;;;;;;5056544;28;20223;-68
2022/04/03 11:23:09;;;;;;;9.93;4.93;;;5.30;59.50;;;;;;5058382;28;20688;-68
2022/04/03 11:25:37;;;;;;;9.48;4.55;;;5.30;59.50;;;;;;5055177;28;20706;-68
2022/04/03 11:28:07;;;;;;;7.80;3.08;;;5.30;59.70;;;;;;5060893;28;20231;-68
2022/04/03 11:30:35;;;;;;;11.43;4.45;;;5.40;59.60;;;;;;5052110;28;20228;-68
2022/04/03 11:33:06;;;;;;;5.90;3.35;;;5.40;59.10;;;;;;5059806;28;20201;-68
2022/04/03 11:35:39;;;;;;;5.88;3.13;;;5.40;58.60;;;;;;5039491;28;20276;-68
2022/04/03 11:38:11;;;;;;;7.90;3.50;;;5.40;58.50;;;;;;5051504;28;21205;-68
2022/04/03 11:40:41;;;;;;;7.20;3.50;;;5.40;58.80;;;;;;5059634;28;20724;-68
2022/04/03 11:43:12;;;;;;;6.07;3.10;;;5.40;58.90;;;;;;5058776;28;20295;-68
2022/04/03 11:45:40;;;;;;;6.45;3.28;;;5.40;57.90;;;;;;5055150;28;20239;-68
2022/04/03 11:48:18;;;;;;;9.20;4.43;;;5.40;57.90;;;;;;5059654;28;20238;-68
2022/04/03 11:50:46;;;;;;;5.90;3.28;;;5.30;56.60;;;;;;5059907;28;20199;-68
2022/04/03 11:53:14;;;;;;;4.78;2.72;;;5.30;58.00;;;;;;5059517;28;20203;-68
2022/04/03 11:55:42;;;;;;;10.80;5.05;;;5.30;58.20;;;;;;5056380;28;20301;-68
2022/04/03 11:58:11;;;;;;;10.70;4.07;;;5.40;58.30;;;;;;5056484;28;20228;-68
2022/04/03 12:00:47;;;;;;;5.35;3.40;;;5.40;58.40;;;;;;5057905;28;20232;-68
2022/04/03 12:03:28;;;;;;;6.45;3.05;;;5.40;58.40;;;;;;5053079;28;20202;-68
2022/04/03 12:06:13;;;;;;;5.93;3.00;;;5.40;57.80;;;;;;5062186;28;20208;-68
2022/04/03 12:08:50;;;;;;;5.18;2.80;;;5.40;58.00;;;;;;5056078;28;20258;-69
2022/04/03 12:11:20;;;;;;;7.20;3.15;;;5.40;58.20;;;;;;5056752;28;20275;-69
2022/04/03 12:13:49;;;;;;;6.05;2.50;;;5.50;58.40;;;;;;5036988;28;20216;-68
2022/04/03 12:16:18;;;;;;;6.00;3.10;;;5.50;58.10;;;;;;5056673;28;20237;-69
2022/04/03 12:18:54;;;;;;;4.70;2.80;;;5.50;57.50;;;;;;5058619;28;20307;-68
2022/04/03 12:21:36;;;;;;;4.00;2.60;;;5.50;56.70;;;;;;5062787;28;20196;-68
2022/04/03 12:24:13;;;;;;;4.80;2.60;;;5.50;57.60;;;;;;5064366;28;20200;-67
2022/04/03 12:26:46;;;;;;;13.13;5.85;;;5.60;57.50;;;;;;5063915;28;20208;-67
2022/04/03 12:29:14;;;;;;;12.52;4.93;;;5.60;57.60;;;;;;5058168;28;20199;-67
2022/04/03 12:31:44;;;;;;;10.05;5.50;;;5.60;57.00;;;;;;5053382;28;20234;-67
2022/04/03 12:34:15;;;;;;;6.15;3.20;;;5.60;56.60;;;;;;5057189;28;20200;-68
2022/04/03 12:36:46;;;;;;;4.40;2.40;;;5.60;56.60;;;;;;5053762;28;20211;-69
2022/04/03 12:39:41;;;;;;;4.80;2.70;;;5.60;56.20;;;;;;5061190;28;20216;-67
2022/04/03 12:42:23;;;;;;;5.70;2.72;;;5.60;56.90;;;;;;5053211;28;20736;-68
2022/04/03 12:45:00;;;;;;;5.32;2.75;;;5.60;54.90;;;;;;5060985;28;20212;-68
2022/04/03 12:47:39;;;;;;;5.30;2.92;;;5.50;55.50;;;;;;5060281;28;20587;-68
2022/04/03 12:50:38;;;;;;;7.10;2.88;;;5.50;55.20;;;;;;5060683;28;20202;-69
2022/04/03 12:53:12;;;;;;;4.90;2.67;;;5.60;55.90;;;;;;5045034;28;20304;-68
2022/04/03 12:55:44;;;;;;;6.00;2.78;;;5.70;56.90;;;;;;5056314;28;21020;-68
2022/04/03 12:58:32;;;;;;;5.88;3.00;;;5.80;57.00;;;;;;5058701;28;20242;-69
2022/04/03 13:01:09;;;;;;;6.18;2.95;;;5.90;57.40;;;;;;5057064;28;20247;-68
2022/04/03 13:03:40;;;;;;;6.63;2.90;;;6.10;57.40;;;;;;5038177;28;20782;-69
2022/04/03 13:06:12;;;;;;;6.72;3.13;;;6.20;57.50;;;;;;5060707;28;20216;-69